Time;durP1;ratioP1;P1;durP2;ratioP2;P2;SDS_P1;SDS_P2;PMS_P1;PMS_P2;Temp;Humidity;BMP_temperature;BMP_pressure;BME280_temperature;BME280_humidity;BME280_pressure;Samples;Min_cycle;Max_cycle;Signal;HPM_P1;HPM_P2
2022/06/23 00:00:02;;;;;;;5.63;3.17;;;;;;;;;;4993398;28;20216;-73
2022/06/23 00:02:31;;;;;;;3.40;3.10;;;;;;;;;;5009199;28;20267;-74
2022/06/23 00:05:04;;;;;;;4.63;3.03;;;;;;;;;;5006290;28;20902;-74
2022/06/23 00:07:32;;;;;;;3.55;3.17;;;;;;;;;;4991706;28;20220;-75
2022/06/23 00:10:11;;;;;;;5.40;3.15;;;;;;;;;;5007003;28;20304;-75
2022/06/23 00:12:40;;;;;;;5.00;3.58;;;;;;;;;;4997391;28;20231;-73
2022/06/23 00:15:08;;;;;;;4.60;3.25;;;;;;;;;;5017858;28;20270;-74
2022/06/23 00:18:15;;;;;;;3.80;3.08;;;;;;;;;;5025421;28;20244;-75
2022/06/23 00:20:52;;;;;;;4.03;3.53;;;;;;;;;;4998743;28;20232;-76
2022/06/23 00:23:33;;;;;;;4.22;3.78;;;;;;;;;;5009188;28;20228;-76
2022/06/23 00:26:00;;;;;;;5.28;3.70;;;;;;;;;;5005140;28;20750;-75
2022/06/23 00:31:39;;;;;;;4.15;3.78;;;;;;;;;;5007951;28;20228;-75
2022/06/23 00:34:16;;;;;;;4.45;3.70;;;;;;;;;;4992166;28;20229;-76
2022/06/23 00:37:00;;;;;;;5.03;3.60;;;;;;;;;;5001085;28;20224;-75
2022/06/23 00:39:39;;;;;;;4.40;3.70;;;;;;;;;;4985510;28;20240;-76
2022/06/23 00:42:25;;;;;;;4.43;3.70;;;;;;;;;;4976050;28;20252;-75
2022/06/23 00:45:27;;;;;;;4.47;4.10;;;;;;;;;;5019653;28;20240;-75
2022/06/23 00:48:21;;;;;;;6.15;3.60;;;;;;;;;;5008316;28;21045;-75
2022/06/23 00:51:15;;;;;;;4.50;3.47;;;;;;;;;;5009013;28;20212;-75
2022/06/23 00:53:56;;;;;;;4.70;4.03;;;;;;;;;;5004902;28;20267;-75
2022/06/23 00:57:02;;;;;;;4.22;3.60;;;;;;;;;;4995626;28;21201;-76
2022/06/23 00:59:45;;;;;;;3.97;3.67;;;;;;;;;;5007551;28;20328;-76
2022/06/23 01:02:19;;;;;;;3.67;3.38;;;;;;;;;;5008058;23;20228;-83
2022/06/23 01:05:05;;;;;;;4.57;3.95;;;;;;;;;;5005695;28;20236;-83
2022/06/23 01:07:51;;;;;;;4.22;3.58;;;;;;;;;;5008913;28;20413;-83
2022/06/23 01:10:21;;;;;;;4.85;4.20;;;;;;;;;;5022570;28;20231;-82
2022/06/23 01:13:28;;;;;;;4.55;3.85;;;;;;;;;;5016611;28;20232;-83
2022/06/23 01:16:03;;;;;;;5.75;4.30;;;;;;;;;;5020855;28;20231;-82
2022/06/23 01:18:48;;;;;;;5.45;4.07;;;;;;;;;;5014066;28;20283;-82
2022/06/23 01:21:28;;;;;;;4.70;4.30;;;;;;;;;;5012868;23;20236;-76
2022/06/23 01:24:06;;;;;;;5.03;4.53;;;;;;;;;;5011502;28;20234;-78
2022/06/23 01:26:59;;;;;;;6.32;4.95;;;;;;;;;;5026018;28;20220;-78
2022/06/23 01:29:37;;;;;;;5.55;4.85;;;;;;;;;;5018822;28;20730;-78
2022/06/23 01:32:22;;;;;;;5.82;5.25;;;;;;;;;;5019496;28;20263;-76
2022/06/23 01:34:53;;;;;;;5.72;5.22;;;;;;;;;;5034020;28;20216;-78
2022/06/23 01:37:44;;;;;;;6.82;5.43;;;;;;;;;;5009908;28;20235;-78
2022/06/23 01:40:22;;;;;;;6.28;5.65;;;;;;;;;;5032965;28;20220;-78
2022/06/23 01:43:04;;;;;;;5.72;5.20;;;;;;;;;;5029136;28;20215;-78
2022/06/23 01:46:01;;;;;;;6.00;5.43;;;;;;;;;;5039818;28;20230;-78
2022/06/23 01:48:52;;;;;;;10.60;5.82;;;;;;;;;;5019948;23;20228;-77
2022/06/23 01:51:34;;;;;;;6.22;5.63;;;;;;;;;;5028102;28;20706;-78
2022/06/23 01:54:21;;;;;;;5.65;5.05;;;;;;;;;;5030916;28;20223;-78
2022/06/23 01:57:13;;;;;;;6.13;5.45;;;;;;;;;;5037867;28;20215;-78
2022/06/23 01:59:58;;;;;;;5.97;5.10;;;;;;;;;;5029244;28;20307;-78
2022/06/23 02:02:50;;;;;;;5.97;5.40;;;;;;;;;;5006428;28;20686;-78
2022/06/23 02:05:27;;;;;;;6.32;5.82;;;;;;;;;;5022252;28;20368;-78
2022/06/23 02:08:04;;;;;;;6.53;5.78;;;;;;;;;;5024826;28;20306;-78
2022/06/23 02:10:43;;;;;;;5.70;5.20;;;;;;;;;;5008601;28;20710;-78
2022/06/23 02:13:19;;;;;;;6.10;5.57;;;;;;;;;;5023308;28;20750;-78
2022/06/23 02:15:58;;;;;;;7.25;5.82;;;;;;;;;;4975242;28;20258;-78
2022/06/23 02:18:51;;;;;;;6.88;6.00;;;;;;;;;;5022484;28;20240;-77
2022/06/23 02:21:31;;;;;;;6.70;6.10;;;;;;;;;;5023749;28;20231;-78
2022/06/23 02:24:04;;;;;;;6.47;5.83;;;;;;;;;;5023995;28;20235;-78
2022/06/23 02:26:37;;;;;;;6.50;6.00;;;;;;;;;;4975880;28;20266;-78
2022/06/23 02:29:24;;;;;;;6.63;6.03;;;;;;;;;;5006122;28;20684;-77
2022/06/23 02:32:06;;;;;;;10.43;6.07;;;;;;;;;;5006081;28;20235;-78
2022/06/23 02:34:41;;;;;;;6.70;6.10;;;;;;;;;;5006486;28;20260;-78
2022/06/23 02:37:44;;;;;;;6.53;5.83;;;;;;;;;;4990811;28;20235;-77
2022/06/23 02:40:31;;;;;;;6.60;6.10;;;;;;;;;;4991799;28;20227;-78
2022/06/23 02:43:11;;;;;;;5.97;5.47;;;;;;;;;;4988634;28;20216;-78
2022/06/23 02:46:18;;;;;;;6.77;6.10;;;;;;;;;;5005971;28;20225;-78
2022/06/23 02:49:02;;;;;;;6.70;6.10;;;;;;;;;;5021456;28;20774;-77
2022/06/23 02:51:36;;;;;;;7.00;5.90;;;;;;;;;;4989780;28;20225;-78
2022/06/23 02:54:14;;;;;;;7.00;6.13;;;;;;;;;;5006754;28;20232;-77
2022/06/23 02:56:43;;;;;;;7.07;6.10;;;;;;;;;;5008915;28;20725;-78
2022/06/23 02:59:25;;;;;;;7.30;6.00;;;;;;;;;;5024072;28;20311;-77
2022/06/23 03:01:57;;;;;;;6.13;5.63;;;;;;;;;;4993346;28;20228;-78
2022/06/23 03:04:32;;;;;;;6.00;5.50;;;;;;;;;;5009136;28;20260;-77
2022/06/23 03:07:03;;;;;;;6.77;5.97;;;;;;;;;;4991011;28;20250;-77
2022/06/23 03:09:48;;;;;;;6.50;5.60;;;;;;;;;;5025776;28;20221;-77
2022/06/23 03:12:35;;;;;;;5.63;5.13;;;;;;;;;;4997189;28;20228;-77
2022/06/23 03:15:15;;;;;;;6.97;5.50;;;;;;;;;;5014149;28;20231;-77
2022/06/23 03:18:06;;;;;;;6.10;5.60;;;;;;;;;;5020962;28;20236;-77
2022/06/23 03:20:55;;;;;;;5.73;5.23;;;;;;;;;;5025536;28;20236;-77
2022/06/23 03:23:44;;;;;;;6.83;5.90;;;;;;;;;;5007578;28;20213;-77
2022/06/23 03:26:47;;;;;;;6.17;5.57;;;;;;;;;;4992456;28;20598;-76
2022/06/23 03:29:26;;;;;;;6.33;5.77;;;;;;;;;;5009967;28;20257;-79
2022/06/23 03:32:16;;;;;;;6.23;5.73;;;;;;;;;;5024658;28;20761;-77
2022/06/23 03:35:05;;;;;;;7.13;6.43;;;;;;;;;;5008665;28;20731;-77
2022/06/23 03:37:57;;;;;;;6.97;6.37;;;;;;;;;;5010686;28;20232;-77
2022/06/23 03:43:18;;;;;;;7.20;6.50;;;;;;;;;;5020829;28;20221;-77
2022/06/23 03:45:59;;;;;;;7.27;6.67;;;;;;;;;;5024655;28;20229;-76
2022/06/23 03:48:33;;;;;;;6.97;6.30;;;;;;;;;;5008670;28;20384;-77
2022/06/23 03:51:10;;;;;;;7.40;6.70;;;;;;;;;;5022356;28;20225;-77
2022/06/23 03:53:45;;;;;;;8.43;6.50;;;;;;;;;;5009233;28;20220;-76
2022/06/23 03:56:20;;;;;;;6.37;5.83;;;;;;;;;;4992188;28;21147;-77
2022/06/23 03:58:58;;;;;;;6.90;6.30;;;;;;;;;;4990931;28;20304;-77
2022/06/23 04:01:51;;;;;;;6.33;5.73;;;;;;;;;;5008132;28;20228;-75
2022/06/23 04:04:23;;;;;;;6.95;5.90;;;;;;;;;;4968433;28;20247;-76
2022/06/23 04:06:49;;;;;;;6.83;5.70;;;;;;;;;;5007562;28;20255;-75
2022/06/23 04:09:25;;;;;;;6.18;5.65;;;;;;;;;;5006744;28;20221;-77
2022/06/23 04:12:06;;;;;;;6.60;5.90;;;;;;;;;;5007683;28;20370;-77
2022/06/23 04:14:56;;;;;;;7.40;6.60;;;;;;;;;;5009372;28;20232;-77
2022/06/23 04:17:38;;;;;;;7.45;6.68;;;;;;;;;;4993800;28;20655;-77
2022/06/23 04:20:44;;;;;;;5.97;5.32;;;;;;;;;;5007097;28;20220;-77
2022/06/23 04:23:19;;;;;;;7.55;6.47;;;;;;;;;;4990839;28;20220;-78
2022/06/23 04:26:01;;;;;;;7.13;5.80;;;;;;;;;;4991196;28;20236;-78
2022/06/23 04:28:48;;;;;;;5.80;5.30;;;;;;;;;;4991508;28;20235;-78
2022/06/23 04:31:20;;;;;;;6.80;6.05;;;;;;;;;;5011395;28;20235;-78
2022/06/23 04:33:46;;;;;;;6.85;6.18;;;;;;;;;;4992783;28;20224;-77
2022/06/23 04:36:28;;;;;;;6.60;5.90;;;;;;;;;;5007753;28;20221;-76
2022/06/23 04:39:03;;;;;;;8.57;5.50;;;;;;;;;;5005120;28;20228;-77
2022/06/23 04:41:50;;;;;;;6.50;5.90;;;;;;;;;;4990926;28;20235;-77
2022/06/23 04:44:25;;;;;;;6.60;5.90;;;;;;;;;;5021365;28;20630;-79
2022/06/23 04:47:14;;;;;;;6.07;5.38;;;;;;;;;;5009155;28;20225;-77
2022/06/23 04:49:42;;;;;;;7.25;5.72;;;;;;;;;;5001724;28;20224;-77
2022/06/23 04:52:32;;;;;;;7.05;5.70;;;;;;;;;;5000978;28;20243;-77
2022/06/23 04:55:17;;;;;;;6.10;5.57;;;;;;;;;;5008780;28;20221;-77
2022/06/23 04:57:59;;;;;;;7.20;5.68;;;;;;;;;;5007166;28;20316;-78
2022/06/23 05:00:27;;;;;;;7.18;5.68;;;;;;;;;;5025331;28;20307;-76
2022/06/23 05:02:57;;;;;;;8.23;5.85;;;;;;;;;;5023983;28;20231;-76
2022/06/23 05:05:30;;;;;;;6.38;5.78;;;;;;;;;;5023599;28;20228;-77
2022/06/23 05:08:03;;;;;;;6.22;5.70;;;;;;;;;;5023153;28;20228;-74
2022/06/23 05:10:35;;;;;;;6.20;5.60;;;;;;;;;;4992494;28;20319;-76
2022/06/23 05:13:00;;;;;;;6.45;5.72;;;;;;;;;;5025604;28;20405;-76
2022/06/23 05:15:45;;;;;;;6.75;5.65;;;;;;;;;;5027770;28;20842;-76
2022/06/23 05:18:11;;;;;;;6.65;5.53;;;;;;;;;;5042534;28;20232;-80
2022/06/23 05:20:39;;;;;;;7.47;5.32;;;;;;;;;;5026041;28;20277;-76
2022/06/23 05:23:05;;;;;;;6.38;5.05;;;;;;;;;;5028235;28;20228;-78
2022/06/23 05:25:46;;;;;;;7.80;5.13;;;;;;;;;;5047729;28;20251;-79
2022/06/23 05:28:28;;;;;;;7.00;5.28;;;;;;;;;;5019397;28;20242;-76
2022/06/23 05:30:58;;;;;;;6.85;4.80;;;;;;;;;;4989185;28;20232;-74
2022/06/23 05:33:36;;;;;;;6.10;5.22;;;;;;;;;;4986988;28;20228;-75
2022/06/23 05:36:04;;;;;;;5.47;4.75;;;;;;;;;;5021093;28;20236;-76
2022/06/23 05:38:44;;;;;;;5.85;4.78;;;;;;;;;;5003815;28;20256;-76
2022/06/23 05:41:22;;;;;;;5.85;4.85;;;;;;;;;;5017806;28;20224;-78
2022/06/23 05:43:48;;;;;;;5.13;4.60;;;;;;;;;;4994790;28;20232;-78
2022/06/23 05:46:26;;;;;;;5.43;4.70;;;;;;;;;;4978897;28;20229;-76
2022/06/23 05:49:11;;;;;;;8.30;4.85;;;;;;;;;;4990331;28;20279;-74
2022/06/23 05:51:53;;;;;;;6.05;4.32;;;;;;;;;;4988247;28;20216;-73
2022/06/23 05:54:30;;;;;;;6.57;4.65;;;;;;;;;;5022290;28;20691;-72
2022/06/23 05:57:06;;;;;;;5.82;4.43;;;;;;;;;;5007195;28;20808;-74
2022/06/23 05:59:55;;;;;;;7.22;4.68;;;;;;;;;;5003309;28;20319;-74
2022/06/23 06:02:25;;;;;;;4.57;3.85;;;;;;;;;;5006525;28;20224;-73
2022/06/23 06:04:52;;;;;;;6.57;4.50;;;;;;;;;;5006758;28;20294;-73
2022/06/23 06:07:20;;;;;;;4.68;3.88;;;;;;;;;;4972308;28;20270;-74
2022/06/23 06:09:46;;;;;;;5.10;4.32;;;;;;;;;;5005501;28;20305;-73
2022/06/23 06:12:17;;;;;;;6.50;4.10;;;;;;;;;;5000106;28;20300;-72
2022/06/23 06:14:49;;;;;;;5.28;3.70;;;;;;;;;;5002388;28;20243;-74
2022/06/23 06:17:18;;;;;;;4.97;4.13;;;;;;;;;;4991794;28;20255;-74
2022/06/23 06:19:43;;;;;;;5.22;4.00;;;;;;;;;;5001951;28;20220;-73
2022/06/23 06:22:36;;;;;;;4.13;3.72;;;;;;;;;;5002358;28;20213;-72
2022/06/23 06:25:03;;;;;;;6.43;3.97;;;;;;;;;;5022044;28;20251;-69
2022/06/23 06:27:29;;;;;;;4.85;3.88;;;;;;;;;;4973813;28;20216;-71
2022/06/23 06:29:54;;;;;;;7.30;3.60;;;;;;;;;;4991127;28;20282;-73
2022/06/23 06:32:39;;;;;;;4.13;3.72;;;;;;;;;;5007921;28;20224;-72
2022/06/23 06:35:26;;;;;;;6.63;3.80;;;;;;;;;;5008339;28;20274;-72
2022/06/23 06:38:14;;;;;;;3.75;3.45;;;;;;;;;;5010477;28;20278;-70
2022/06/23 06:40:42;;;;;;;5.05;3.35;;;;;;;;;;5009188;28;20687;-71
2022/06/23 06:43:19;;;;;;;4.97;3.67;;;;;;;;;;5007551;28;20260;-71
2022/06/23 06:45:46;;;;;;;4.95;3.55;;;;;;;;;;4993256;28;20220;-73
2022/06/23 06:48:22;;;;;;;3.67;3.28;;;;;;;;;;4976455;28;20672;-72
2022/06/23 06:50:52;;;;;;;5.03;3.42;;;;;;;;;;4993090;28;20232;-72
2022/06/23 06:53:23;;;;;;;4.82;3.50;;;;;;;;;;4976129;28;20229;-71
2022/06/23 06:55:55;;;;;;;5.40;3.80;;;;;;;;;;4992197;28;20251;-71
2022/06/23 06:58:50;;;;;;;4.05;3.65;;;;;;;;;;4992660;28;20543;-72
2022/06/23 07:01:22;;;;;;;5.22;3.30;;;;;;;;;;5004287;28;20229;-71
2022/06/23 07:03:55;;;;;;;3.67;3.17;;;;;;;;;;5009421;28;20220;-74
2022/06/23 07:06:20;;;;;;;4.35;3.63;;;;;;;;;;4992225;28;20240;-74
2022/06/23 07:08:51;;;;;;;4.30;3.33;;;;;;;;;;5008956;28;20220;-75
2022/06/23 07:11:22;;;;;;;5.45;3.50;;;;;;;;;;5002052;28;20228;-75
2022/06/23 07:14:03;;;;;;;5.22;3.40;;;;;;;;;;5005763;28;20232;-76
2022/06/23 07:16:41;;;;;;;5.32;3.35;;;;;;;;;;4976625;28;20230;-75
2022/06/23 07:19:22;;;;;;;3.80;3.33;;;;;;;;;;5008010;28;20224;-74
2022/06/23 07:21:53;;;;;;;3.67;3.13;;;;;;;;;;5007072;28;20220;-74
2022/06/23 07:24:25;;;;;;;5.28;3.28;;;;;;;;;;4990266;28;20256;-76
2022/06/23 07:27:07;;;;;;;4.10;3.15;;;;;;;;;;5009336;28;20298;-74
2022/06/23 07:30:00;;;;;;;3.10;2.72;;;;;;;;;;5007180;28;20233;-75
2022/06/23 07:32:48;;;;;;;2.95;2.72;;;;;;;;;;5001990;28;20355;-75
2022/06/23 07:35:18;;;;;;;5.15;2.88;;;;;;;;;;5010179;28;20271;-75
2022/06/23 07:37:48;;;;;;;3.40;2.83;;;;;;;;;;5007772;28;20221;-75
2022/06/23 07:40:18;;;;;;;3.58;2.70;;;;;;;;;;5005587;28;20221;-74
2022/06/23 07:43:04;;;;;;;2.97;2.65;;;;;;;;;;5009220;28;20243;-75
2022/06/23 07:45:52;;;;;;;4.55;2.70;;;;;;;;;;5006103;28;20596;-76
2022/06/23 07:48:23;;;;;;;3.08;2.58;;;;;;;;;;4971655;28;20224;-75
2022/06/23 07:50:48;;;;;;;4.38;2.33;;;;;;;;;;5022800;28;20585;-76
2022/06/23 07:53:20;;;;;;;4.25;2.60;;;;;;;;;;4991818;28;20228;-78
2022/06/23 07:55:46;;;;;;;2.92;2.50;;;;;;;;;;5006647;28;20236;-75
2022/06/23 07:58:14;;;;;;;4.53;2.63;;;;;;;;;;4997569;28;20235;-74
2022/06/23 08:00:43;;;;;;;3.45;2.58;;;;;;;;;;5010182;28;20301;-75
2022/06/23 08:03:15;;;;;;;3.42;2.25;;;;;;;;;;5021177;28;20951;-74
2022/06/23 08:05:45;;;;;;;3.55;2.40;;;;;;;;;;5007635;28;20227;-74
2022/06/23 08:08:18;;;;;;;3.75;2.60;;;;;;;;;;5004934;28;20291;-73
2022/06/23 08:10:43;;;;;;;4.20;2.40;;;;;;;;;;4991751;28;20221;-72
2022/06/23 08:13:21;;;;;;;6.72;2.60;;;;;;;;;;5005715;28;20228;-75
2022/06/23 08:18:51;;;;;;;2.92;2.47;;;;;;;;;;5006693;28;20260;-73
2022/06/23 08:21:26;;;;;;;4.47;2.40;;;;;;;;;;5004826;28;20290;-74
2022/06/23 08:24:15;;;;;;;2.70;2.10;;;;;;;;;;4989896;28;20235;-74
2022/06/23 08:26:47;;;;;;;4.78;2.33;;;;;;;;;;4991271;28;20301;-73
2022/06/23 08:29:16;;;;;;;2.72;2.00;;;;;;;;;;5009986;28;20224;-73
2022/06/23 08:31:44;;;;;;;2.22;2.03;;;;;;;;;;5009283;28;20601;-75
2022/06/23 08:34:09;;;;;;;2.50;1.98;;;;;;;;;;5017747;28;20680;-74
2022/06/23 08:36:51;;;;;;;2.53;2.20;;;;;;;;;;4990739;28;20233;-73
2022/06/23 08:39:29;;;;;;;3.25;2.28;;;;;;;;;;4999733;28;20255;-74
2022/06/23 08:42:04;;;;;;;5.35;2.00;;;;;;;;;;4971557;28;20220;-73
2022/06/23 08:44:41;;;;;;;3.80;1.85;;;;;;;;;;5000871;28;20602;-73
2022/06/23 08:47:17;;;;;;;2.53;2.00;;;;;;;;;;5022630;28;20224;-74
2022/06/23 08:49:48;;;;;;;3.65;1.80;;;;;;;;;;5018222;28;20231;-74
2022/06/23 08:52:19;;;;;;;2.80;1.90;;;;;;;;;;5002812;28;20235;-73
2022/06/23 08:55:19;;;;;;;2.13;1.80;;;;;;;;;;5023874;28;20730;-75
2022/06/23 08:58:00;;;;;;;3.08;1.90;;;;;;;;;;4991891;28;20320;-74
2022/06/23 09:00:38;;;;;;;2.90;1.80;;;;;;;;;;5023396;28;20869;-76
2022/06/23 09:03:14;;;;;;;4.20;2.30;;;;;;;;;;4974773;28;20224;-74
2022/06/23 09:05:45;;;;;;;2.97;2.10;;;;;;;;;;5005253;28;20255;-74
2022/06/23 09:08:23;;;;;;;2.55;2.20;;;;;;;;;;5001093;28;20227;-75
2022/06/23 09:11:01;;;;;;;4.10;1.67;;;;;;;;;;4990521;28;20240;-74
2022/06/23 09:13:38;;;;;;;3.58;1.90;;;;;;;;;;5004075;28;20605;-75
2022/06/23 09:16:09;;;;;;;2.85;2.10;;;;;;;;;;5007521;28;20228;-75
2022/06/23 09:19:02;;;;;;;2.33;1.80;;;;;;;;;;5023403;28;20710;-75
2022/06/23 09:21:43;;;;;;;4.82;2.10;;;;;;;;;;5006314;28;20350;-74
2022/06/23 09:24:44;;;;;;;2.90;1.67;;;;;;;;;;5020414;28;20590;-74
2022/06/23 09:27:18;;;;;;;1.77;1.52;;;;;;;;;;4973070;28;20307;-74
2022/06/23 09:29:48;;;;;;;5.35;1.85;;;;;;;;;;5020651;28;20223;-75
2022/06/23 09:32:37;;;;;;;4.45;1.70;;;;;;;;;;5004696;28;20209;-74
2022/06/23 09:35:35;;;;;;;3.03;1.50;;;;;;;;;;5002384;28;20267;-75
2022/06/23 09:38:17;;;;;;;3.90;1.50;;;;;;;;;;4954176;28;20240;-75
2022/06/23 09:41:08;;;;;;;2.92;1.60;;;;;;;;;;5001407;28;20236;-74
2022/06/23 09:43:52;;;;;;;1.95;1.77;;;;;;;;;;5005375;28;20224;-75
2022/06/23 09:46:27;;;;;;;2.97;1.83;;;;;;;;;;5019759;28;20662;-76
2022/06/23 09:49:04;;;;;;;3.20;1.85;;;;;;;;;;5004344;28;20224;-72
2022/06/23 09:51:51;;;;;;;2.63;1.83;;;;;;;;;;5022228;28;20256;-74
2022/06/23 09:54:34;;;;;;;4.80;1.80;;;;;;;;;;4957257;28;20231;-74
2022/06/23 09:57:16;;;;;;;2.20;1.70;;;;;;;;;;5009070;28;20228;-74
2022/06/23 09:59:48;;;;;;;4.15;1.80;;;;;;;;;;5022167;28;20768;-75
2022/06/23 10:02:40;;;;;;;4.22;1.92;;;;;;;;;;5006884;28;20699;-75
2022/06/23 10:05:24;;;;;;;4.70;1.80;;;;;;;;;;4989734;28;20220;-74
2022/06/23 10:08:10;;;;;;;1.73;1.52;;;;;;;;;;5006918;28;20229;-75
2022/06/23 10:10:42;;;;;;;3.38;2.05;;;;;;;;;;5006294;28;20359;-73
2022/06/23 10:13:18;;;;;;;3.25;1.88;;;;;;;;;;5005627;28;20268;-72
2022/06/23 10:16:15;;;;;;;3.20;1.50;;;;;;;;;;5020503;28;20231;-75
2022/06/23 10:18:53;;;;;;;2.08;1.80;;;;;;;;;;5018192;28;20329;-75
2022/06/23 10:21:21;;;;;;;2.63;1.80;;;;;;;;;;4984307;28;20220;-75
2022/06/23 10:24:24;;;;;;;3.65;1.70;;;;;;;;;;5022380;28;20595;-74
2022/06/23 10:27:10;;;;;;;1.90;1.40;;;;;;;;;;5019905;28;20343;-75
2022/06/23 10:30:05;;;;;;;3.70;1.60;;;;;;;;;;5005412;28;20270;-74
2022/06/23 10:32:40;;;;;;;1.40;1.30;;;;;;;;;;5001952;28;20227;-74
2022/06/23 10:35:37;;;;;;;3.13;1.67;;;;;;;;;;5020838;28;20235;-75
2022/06/23 10:38:20;;;;;;;1.65;1.50;;;;;;;;;;5021443;28;20225;-73
2022/06/23 10:41:20;;;;;;;2.90;1.58;;;;;;;;;;5005649;28;20217;-73
2022/06/23 10:43:56;;;;;;;3.30;1.55;;;;;;;;;;4977644;28;20220;-74
2022/06/23 10:46:31;;;;;;;2.50;1.40;;;;;;;;;;5004514;28;20233;-74
2022/06/23 10:49:12;;;;;;;3.63;1.50;;;;;;;;;;4988474;28;20224;-76
2022/06/23 10:51:46;;;;;;;3.22;1.70;;;;;;;;;;5020891;28;20781;-74
2022/06/23 10:54:20;;;;;;;4.38;1.80;;;;;;;;;;5001966;28;20224;-71
2022/06/23 10:57:07;;;;;;;1.50;1.38;;;;;;;;;;5020911;28;20232;-76
2022/06/23 10:59:45;;;;;;;4.63;2.17;;;;;;;;;;5005792;28;20305;-73
2022/06/23 11:02:28;;;;;;;3.30;1.52;;;;;;;;;;5004442;28;20236;-73
2022/06/23 11:05:16;;;;;;;2.15;1.60;;;;;;;;;;5019973;28;20698;-74
2022/06/23 11:08:12;;;;;;;4.43;1.52;;;;;;;;;;5004457;28;20255;-73
2022/06/23 11:10:52;;;;;;;1.70;1.50;;;;;;;;;;4982095;28;20225;-74
2022/06/23 11:13:49;;;;;;;1.60;1.50;;;;;;;;;;4988449;28;20295;-74
2022/06/23 11:16:17;;;;;;;3.00;1.60;;;;;;;;;;4979850;28;20738;-74
2022/06/23 11:19:21;;;;;;;2.25;1.50;;;;;;;;;;4992781;28;20694;-73
2022/06/23 11:21:57;;;;;;;3.08;1.60;;;;;;;;;;5023968;28;20232;-73
2022/06/23 11:24:43;;;;;;;1.40;1.30;;;;;;;;;;5009688;28;20224;-73
2022/06/23 11:27:23;;;;;;;1.48;1.38;;;;;;;;;;4992822;28;20216;-74
2022/06/23 11:30:04;;;;;;;3.05;1.70;;;;;;;;;;5025154;28;20269;-73
2022/06/23 11:32:58;;;;;;;2.60;1.58;;;;;;;;;;5008583;28;20254;-72
2022/06/23 11:35:51;;;;;;;4.45;1.60;;;;;;;;;;4997202;28;20302;-74
2022/06/23 11:38:37;;;;;;;1.83;1.55;;;;;;;;;;5009412;28;20638;-73
2022/06/23 11:41:17;;;;;;;3.28;1.63;;;;;;;;;;5007366;28;20220;-74
2022/06/23 11:43:58;;;;;;;1.90;1.40;;;;;;;;;;5008756;28;20741;-73
2022/06/23 11:46:36;;;;;;;2.63;1.50;;;;;;;;;;5006134;28;20258;-72
2022/06/23 11:49:12;;;;;;;1.83;1.52;;;;;;;;;;4989028;28;20251;-72
2022/06/23 11:52:05;;;;;;;1.40;1.30;;;;;;;;;;5007659;28;20813;-75
2022/06/23 11:54:43;;;;;;;4.20;1.50;;;;;;;;;;5018704;28;20236;-71
2022/06/23 11:57:27;;;;;;;3.28;1.70;;;;;;;;;;5005440;28;20232;-73
2022/06/23 12:00:05;;;;;;;1.65;1.52;;;;;;;;;;5005208;28;20784;-72
2022/06/23 12:02:45;;;;;;;2.60;1.45;;;;;;;;;;5007115;28;20221;-72
2022/06/23 12:05:25;;;;;;;3.58;1.50;;;;;;;;;;5006691;28;20722;-74
2022/06/23 12:07:57;;;;;;;1.73;1.40;;;;;;;;;;4991135;28;20651;-72
2022/06/23 12:10:26;;;;;;;2.97;1.42;;;;;;;;;;5018739;28;20228;-73
2022/06/23 12:12:58;;;;;;;1.40;1.27;;;;;;;;;;4973144;28;20606;-73
2022/06/23 12:15:26;;;;;;;1.60;1.50;;;;;;;;;;4987450;28;20216;-71
2022/06/23 12:18:03;;;;;;;4.55;1.48;;;;;;;;;;5000805;28;20225;-72
2022/06/23 12:20:47;;;;;;;2.65;1.50;;;;;;;;;;4989172;28;20223;-73
2022/06/23 12:23:19;;;;;;;2.75;1.73;;;;;;;;;;4988605;28;20213;-75
2022/06/23 12:25:51;;;;;;;3.75;1.63;;;;;;;;;;4990942;28;20301;-76
2022/06/23 12:28:31;;;;;;;1.92;1.48;;;;;;;;;;5007695;28;20286;-76
2022/06/23 12:31:17;;;;;;;1.75;1.20;;;;;;;;;;4991862;28;20231;-73
2022/06/23 12:33:55;;;;;;;3.00;1.40;;;;;;;;;;5007632;28;20275;-74
2022/06/23 12:36:28;;;;;;;1.98;1.40;;;;;;;;;;5001910;28;20228;-74
2022/06/23 12:39:00;;;;;;;3.30;1.58;;;;;;;;;;5002067;28;20232;-75
2022/06/23 12:41:46;;;;;;;1.70;1.55;;;;;;;;;;4987650;28;20263;-73
2022/06/23 12:44:39;;;;;;;2.00;1.67;;;;;;;;;;5005421;28;20232;-74
2022/06/23 12:47:26;;;;;;;2.38;1.58;;;;;;;;;;5023234;28;20251;-75
2022/06/23 12:50:23;;;;;;;1.88;1.52;;;;;;;;;;5005781;28;20228;-75
2022/06/23 12:53:10;;;;;;;1.90;1.50;;;;;;;;;;5012135;28;20302;-75
2022/06/23 12:55:53;;;;;;;2.13;1.50;;;;;;;;;;5007760;28;20235;-75
2022/06/23 12:58:31;;;;;;;1.85;1.40;;;;;;;;;;4987808;28;20327;-74
2022/06/23 13:01:17;;;;;;;1.75;1.38;;;;;;;;;;5006755;28;20286;-74
2022/06/23 13:04:31;;;;;;;4.03;1.45;;;;;;;;;;4990985;28;20227;-74
2022/06/23 13:07:09;;;;;;;1.65;1.23;;;;;;;;;;4999635;28;20259;-73
2022/06/23 13:09:48;;;;;;;2.40;1.55;;;;;;;;;;5007158;28;20224;-74
2022/06/23 13:12:35;;;;;;;1.60;1.50;;;;;;;;;;5004617;28;20267;-74
2022/06/23 13:15:12;;;;;;;1.60;1.50;;;;;;;;;;4958106;28;20217;-75
2022/06/23 13:17:49;;;;;;;2.78;1.50;;;;;;;;;;5004294;28;20639;-76
2022/06/23 13:20:42;;;;;;;2.05;1.60;;;;;;;;;;4975931;28;20228;-75
2022/06/23 13:23:12;;;;;;;3.47;1.70;;;;;;;;;;5004868;28;20319;-75
2022/06/23 13:25:46;;;;;;;1.70;1.50;;;;;;;;;;5005420;28;20220;-74
2022/06/23 13:28:23;;;;;;;2.65;1.83;;;;;;;;;;5004470;28;20235;-75
2022/06/23 13:30:49;;;;;;;3.25;1.60;;;;;;;;;;4993445;28;20216;-76
2022/06/23 13:33:43;;;;;;;2.38;1.83;;;;;;;;;;4990959;28;20216;-75
2022/06/23 13:36:39;;;;;;;2.25;1.67;;;;;;;;;;5007983;28;20287;-75
2022/06/23 13:39:28;;;;;;;1.92;1.50;;;;;;;;;;5001704;28;20232;-75
2022/06/23 13:42:10;;;;;;;1.88;1.40;;;;;;;;;;5000173;28;20220;-74
2022/06/23 13:44:39;;;;;;;2.15;1.45;;;;;;;;;;5001228;28;20637;-76
2022/06/23 13:47:12;;;;;;;2.22;1.38;;;;;;;;;;5001849;28;20713;-75
2022/06/23 13:49:46;;;;;;;3.08;1.60;;;;;;;;;;5019149;28;20213;-75
2022/06/23 13:52:31;;;;;;;2.30;1.70;;;;;;;;;;5025044;28;20242;-76
2022/06/23 13:54:57;;;;;;;1.60;1.50;;;;;;;;;;5021447;28;20224;-75
2022/06/23 13:57:53;;;;;;;1.40;1.27;;;;;;;;;;5001295;28;20304;-75
2022/06/23 14:00:34;;;;;;;2.25;1.70;;;;;;;;;;5002914;28;20228;-75
2022/06/23 14:03:14;;;;;;;2.47;1.45;;;;;;;;;;4988952;28;20225;-75
2022/06/23 14:05:52;;;;;;;3.17;1.50;;;;;;;;;;5009725;28;20223;-75
2022/06/23 14:08:34;;;;;;;2.58;1.50;;;;;;;;;;5012764;28;20229;-75
2022/06/23 14:11:02;;;;;;;2.10;1.50;;;;;;;;;;4989565;28;20735;-77
2022/06/23 14:13:50;;;;;;;2.35;1.35;;;;;;;;;;5027123;28;20232;-76
2022/06/23 14:16:22;;;;;;;2.83;1.70;;;;;;;;;;5010342;28;20227;-73
2022/06/23 14:19:02;;;;;;;2.85;1.55;;;;;;;;;;5002772;28;20264;-74
2022/06/23 14:21:34;;;;;;;2.45;1.50;;;;;;;;;;5004443;28;20221;-73
2022/06/23 14:24:11;;;;;;;1.30;1.20;;;;;;;;;;5027992;28;20236;-73
2022/06/23 14:26:46;;;;;;;1.95;1.60;;;;;;;;;;5020565;28;20224;-74
2022/06/23 14:29:19;;;;;;;1.63;1.27;;;;;;;;;;5005867;28;20302;-72
2022/06/23 14:31:55;;;;;;;1.73;1.50;;;;;;;;;;5006641;28;20228;-75
2022/06/23 14:34:31;;;;;;;2.05;1.42;;;;;;;;;;5005844;28;20625;-74
2022/06/23 14:37:10;;;;;;;2.80;1.45;;;;;;;;;;5006968;28;20231;-73
2022/06/23 14:39:38;;;;;;;1.88;1.70;;;;;;;;;;5005299;28;20308;-74
2022/06/23 14:42:20;;;;;;;2.00;1.50;;;;;;;;;;5013988;28;20235;-74
2022/06/23 14:45:02;;;;;;;2.25;1.58;;;;;;;;;;5036412;28;20731;-75
2022/06/23 14:47:49;;;;;;;1.98;1.65;;;;;;;;;;4996583;28;20227;-73
2022/06/23 14:50:23;;;;;;;1.50;1.40;;;;;;;;;;5004706;28;20311;-73
2022/06/23 14:53:13;;;;;;;1.77;1.58;;;;;;;;;;5024775;28;20215;-73
2022/06/23 14:55:50;;;;;;;2.25;1.35;;;;;;;;;;5006732;28;20220;-73
2022/06/23 14:58:28;;;;;;;2.65;1.50;;;;;;;;;;4993890;28;20260;-76
2022/06/23 15:01:01;;;;;;;2.88;1.52;;;;;;;;;;5006598;28;20711;-74
2022/06/23 15:04:01;;;;;;;5.88;2.30;;;;;;;;;;5009899;28;20363;-74
2022/06/23 15:06:56;;;;;;;2.17;1.73;;;;;;;;;;5007545;28;20232;-74
2022/06/23 15:09:40;;;;;;;2.65;1.60;;;;;;;;;;5005083;28;20307;-74
2022/06/23 15:12:20;;;;;;;4.50;1.70;;;;;;;;;;5003396;28;20717;-75
2022/06/23 15:14:57;;;;;;;1.77;1.40;;;;;;;;;;5006952;28;20224;-74
2022/06/23 15:17:31;;;;;;;1.48;1.38;;;;;;;;;;5024411;28;20247;-74
2022/06/23 15:20:21;;;;;;;1.70;1.40;;;;;;;;;;5008085;28;20220;-75
2022/06/23 15:23:10;;;;;;;1.50;1.35;;;;;;;;;;4993098;28;20231;-74
2022/06/23 15:25:54;;;;;;;3.53;1.42;;;;;;;;;;5008374;28;20236;-74
2022/06/23 15:28:38;;;;;;;3.10;1.80;;;;;;;;;;5010903;28;20723;-75
2022/06/23 15:31:21;;;;;;;2.40;1.40;;;;;;;;;;5006489;28;20224;-75
2022/06/23 15:34:11;;;;;;;2.22;1.75;;;;;;;;;;4991690;28;20599;-75
2022/06/23 15:36:41;;;;;;;6.65;1.60;;;;;;;;;;5006568;28;20248;-76
2022/06/23 15:39:28;;;;;;;3.92;1.90;;;;;;;;;;4993522;28;20229;-74
2022/06/23 15:41:56;;;;;;;3.88;1.70;;;;;;;;;;4988639;28;20217;-73
2022/06/23 15:44:30;;;;;;;5.72;1.80;;;;;;;;;;4989149;28;20223;-74
2022/06/23 15:46:59;;;;;;;1.70;1.60;;;;;;;;;;5009044;28;20607;-74
2022/06/23 15:49:36;;;;;;;2.00;1.75;;;;;;;;;;5008121;28;20287;-73
2022/06/23 15:52:26;;;;;;;3.30;1.70;;;;;;;;;;5006612;28;20220;-74
2022/06/23 15:54:54;;;;;;;2.58;1.98;;;;;;;;;;5026503;28;20220;-76
2022/06/23 15:57:33;;;;;;;5.82;2.03;;;;;;;;;;5008757;28;20599;-74
2022/06/23 16:00:24;;;;;;;2.95;2.00;;;;;;;;;;5006376;28;20223;-75
2022/06/23 16:02:52;;;;;;;1.85;1.67;;;;;;;;;;5017094;28;20740;-75
2022/06/23 16:05:20;;;;;;;3.75;1.70;;;;;;;;;;4980031;28;20231;-74